Palacios, TX

4:02 AM CDT on May 28, 2015 (GMT -0500)
Palacios Municipal | | Change Station
CLOSE
Current Station
Airport
Location: Palacios,
Elevation: 16 ft
Nearby Weather Stations

Elev 16 ft 28.73 °N, 96.25 °W | Updated 1 hour ago

Overcast
Overcast
79 °F
Feels Like 79 °F
N
12
Wind Variable Wind from SE

Today
High -- | Low -- °F
--% Chance of Precip.
Yesterday
High -- | Low -- °F
Precip. -- in
6:28 AM 8:16 PM
Waxing Gibbous, 74% visible
Pressure 30.01 in
Visibility 9.0 miles
Clouds Few 1300 ft
Overcast 2800 ft
Dew Point 76 °F
Humidity 90%
Rainfall 0.00 in
Snow Depth Not available.
UV 0 out of 12
Pollen 5.80 out of 12
Air Quality Not available.
Flu Activity Sporadic
METAR KPSX 280753Z AUTO 14010KT 9SM FEW013 OVC028 26/24 A3001 RMK AO2 SLP163 T02610244

More Conditions Fewer Conditions

Pressure 30.01 in
Visibility 9.0 miles
Clouds Few 1300 ft
Overcast 2800 ft
Dew Point 76 °F
Humidity 90%
Rainfall 0.00 in
Snow Depth Not available.
UV 0 out of 12
Pollen 5.80 out of 12
Air Quality Not available.
Flu Activity Sporadic
METAR KPSX 280753Z AUTO 14010KT 9SM FEW013 OVC028 26/24 A3001 RMK AO2 SLP163 T02610244

More Conditions Fewer Conditions

10-Day Weather Forecast

Almanac

Astronomy

May. 28, 2015 Rise Set
Actual Time
Civil Twilight
Nautical Twilight
Astronomical Twilight
Moon
Length of Visible Light
Length of Day
Tomorrow will be .
, % of the Moon is Illuminated

Today's Extremes

State Highs State Lows

Community

WunderPhotos

Upload Photos

1,824,935 photos uploaded!

WunderBlogs® & News

Nearby

Air Quality

  Air Quality AQ Index Pollutant
Not available.

Snow Depth

Station Depth Elevation

Earthquake Activity

City Distance Mag. Time & Date
Minimum magnitude displayed is 2.5.

Coastal Water Temperatures

Place Temperature

Stations

Nearby Weather Stations

Station Location Temp. Windchill Dew Point Humidity Wind Precip. Elev Updated Type